sensor_id;sensor_type;location;lat;lon;timestamp;pressure;altitude;pressure_sealevel;temperature;humidity
22753;BME280;11543;43.144;24.684;2023-01-25T00:01:52;100387.94;;;3.98;77.32
22753;BME280;11543;43.144;24.684;2023-01-25T00:04:18;100429.06;;;4.25;77.56
22753;BME280;11543;43.144;24.684;2023-01-25T00:06:45;100403.88;;;4.15;77.29
22753;BME280;11543;43.144;24.684;2023-01-25T00:09:11;100421.00;;;4.27;77.28
22753;BME280;11543;43.144;24.684;2023-01-25T00:11:36;100385.44;;;4.12;76.96
22753;BME280;11543;43.144;24.684;2023-01-25T00:14:03;100379.28;;;4.11;77.02
22753;BME280;11543;43.144;24.684;2023-01-25T00:16:28;100382.72;;;4.13;77.11
22753;BME280;11543;43.144;24.684;2023-01-25T00:18:54;100424.56;;;4.44;76.82
22753;BME280;11543;43.144;24.684;2023-01-25T00:21:23;100393.44;;;4.29;77.01
22753;BME280;11543;43.144;24.684;2023-01-25T00:23:49;100379.53;;;4.24;77.15
22753;BME280;11543;43.144;24.684;2023-01-25T00:26:15;100401.81;;;4.39;76.96
22753;BME280;11543;43.144;24.684;2023-01-25T00:28:41;100438.25;;;4.71;77.01
22753;BME280;11543;43.144;24.684;2023-01-25T00:31:09;100412.66;;;4.69;76.48
22753;BME280;11543;43.144;24.684;2023-01-25T00:33:48;100384.16;;;4.55;76.25
22753;BME280;11543;43.144;24.684;2023-01-25T00:38:59;100436.09;;;4.95;75.57
22753;BME280;11543;43.144;24.684;2023-01-25T00:41:25;100378.44;;;4.63;75.74
22753;BME280;11543;43.144;24.684;2023-01-25T00:43:51;100389.69;;;4.68;75.09
22753;BME280;11543;43.144;24.684;2023-01-25T00:46:17;100427.03;;;4.99;74.52
22753;BME280;11543;43.144;24.684;2023-01-25T00:48:43;100369.97;;;4.72;74.62
22753;BME280;11543;43.144;24.684;2023-01-25T00:51:09;100371.69;;;4.73;74.59
22753;BME280;11543;43.144;24.684;2023-01-25T00:53:35;100427.56;;;5.06;74.11
22753;BME280;11543;43.144;24.684;2023-01-25T00:56:02;100377.72;;;4.76;74.02
22753;BME280;11543;43.144;24.684;2023-01-25T00:58:28;100369.25;;;4.86;74.02
22753;BME280;11543;43.144;24.684;2023-01-25T01:00:54;100363.16;;;4.84;74.11
22753;BME280;11543;43.144;24.684;2023-01-25T01:03:21;100356.03;;;4.84;73.65
22753;BME280;11543;43.144;24.684;2023-01-25T01:05:46;100361.97;;;4.89;74.00
22753;BME280;11543;43.144;24.684;2023-01-25T01:08:13;100392.72;;;5.10;73.23
22753;BME280;11543;43.144;24.684;2023-01-25T01:10:39;100365.06;;;4.97;73.18
22753;BME280;11543;43.144;24.684;2023-01-25T01:13:06;100398.03;;;5.10;73.13
22753;BME280;11543;43.144;24.684;2023-01-25T01:15:35;100419.16;;;5.13;73.90
22753;BME280;11543;43.144;24.684;2023-01-25T01:18:00;100415.66;;;5.13;73.23
22753;BME280;11543;43.144;24.684;2023-01-25T01:20:26;100396.50;;;5.06;73.23
22753;BME280;11543;43.144;24.684;2023-01-25T01:22:52;100350.34;;;4.74;72.92
22753;BME280;11543;43.144;24.684;2023-01-25T01:25:20;100368.53;;;4.82;73.07
22753;BME280;11543;43.144;24.684;2023-01-25T01:27:45;100404.97;;;4.97;73.58
22753;BME280;11543;43.144;24.684;2023-01-25T01:30:11;100333.56;;;4.57;73.82
22753;BME280;11543;43.144;24.684;2023-01-25T01:32:38;100328.25;;;4.57;73.50
22753;BME280;11543;43.144;24.684;2023-01-25T01:35:04;100375.13;;;4.75;73.85
22753;BME280;11543;43.144;24.684;2023-01-25T01:37:30;100324.97;;;4.52;74.14
22753;BME280;11543;43.144;24.684;2023-01-25T01:39:55;100330.84;;;4.58;73.93
22753;BME280;11543;43.144;24.684;2023-01-25T01:42:22;100369.16;;;4.87;74.14
22753;BME280;11543;43.144;24.684;2023-01-25T01:44:49;100393.06;;;5.04;74.18
22753;BME280;11543;43.144;24.684;2023-01-25T01:47:26;100360.25;;;4.88;73.80
22753;BME280;11543;43.144;24.684;2023-01-25T01:49:58;100381.72;;;5.01;73.58
22753;BME280;11543;43.144;24.684;2023-01-25T01:52:32;100368.66;;;4.96;73.77
22753;BME280;11543;43.144;24.684;2023-01-25T01:55:20;100380.84;;;5.00;73.30
22753;BME280;11543;43.144;24.684;2023-01-25T01:57:51;100381.03;;;4.97;73.40
22753;BME280;11543;43.144;24.684;2023-01-25T02:00:24;100391.69;;;5.13;72.97
22753;BME280;11543;43.144;24.684;2023-01-25T02:02:51;100377.88;;;5.06;73.03
22753;BME280;11543;43.144;24.684;2023-01-25T02:05:26;100367.41;;;5.03;73.26
22753;BME280;11543;43.144;24.684;2023-01-25T02:07:56;100388.19;;;5.12;72.29
22753;BME280;11543;43.144;24.684;2023-01-25T02:10:22;100342.41;;;4.90;72.68
22753;BME280;11543;43.144;24.684;2023-01-25T02:12:50;100355.81;;;5.04;72.52
22753;BME280;11543;43.144;24.684;2023-01-25T02:15:17;100376.25;;;5.20;72.58
22753;BME280;11543;43.144;24.684;2023-01-25T02:17:42;100333.47;;;4.91;72.45
22753;BME280;11543;43.144;24.684;2023-01-25T02:25:56;100375.03;;;5.09;72.95
22753;BME280;11543;43.144;24.684;2023-01-25T02:28:37;100368.69;;;5.12;73.22
22753;BME280;11543;43.144;24.684;2023-01-25T02:31:04;100326.94;;;4.81;73.09
22753;BME280;11543;43.144;24.684;2023-01-25T02:33:30;100338.47;;;4.97;72.42
22753;BME280;11543;43.144;24.684;2023-01-25T02:38:37;100348.44;;;5.09;72.50
22753;BME280;11543;43.144;24.684;2023-01-25T02:41:10;100387.28;;;5.29;72.21
22753;BME280;11543;43.144;24.684;2023-01-25T02:43:37;100370.81;;;5.23;72.70
22753;BME280;11543;43.144;24.684;2023-01-25T02:46:09;100374.41;;;5.22;72.12
22753;BME280;11543;43.144;24.684;2023-01-25T02:48:36;100369.22;;;5.19;72.06
22753;BME280;11543;43.144;24.684;2023-01-25T02:51:05;100364.06;;;5.16;72.26
22753;BME280;11543;43.144;24.684;2023-01-25T02:53:30;100325.50;;;4.91;72.34
22753;BME280;11543;43.144;24.684;2023-01-25T02:55:56;100343.63;;;5.00;72.02
22753;BME280;11543;43.144;24.684;2023-01-25T02:58:21;100343.94;;;4.94;72.46
22753;BME280;11543;43.144;24.684;2023-01-25T03:00:47;100352.72;;;4.96;72.44
22753;BME280;11543;43.144;24.684;2023-01-25T03:03:12;100331.41;;;4.80;72.46
22753;BME280;11543;43.144;24.684;2023-01-25T03:05:38;100311.97;;;4.63;72.95
22753;BME280;11543;43.144;24.684;2023-01-25T03:08:04;100341.50;;;4.74;72.76
22753;BME280;11543;43.144;24.684;2023-01-25T03:10:29;100302.31;;;4.44;72.72
22753;BME280;11543;43.144;24.684;2023-01-25T03:12:55;100342.56;;;4.54;73.15
22753;BME280;11543;43.144;24.684;2023-01-25T03:15:20;100342.81;;;4.50;73.43
22753;BME280;11543;43.144;24.684;2023-01-25T03:17:45;100366.81;;;4.48;73.58
22753;BME280;11543;43.144;24.684;2023-01-25T03:20:11;100373.59;;;4.36;73.68
22753;BME280;11543;43.144;24.684;2023-01-25T03:22:37;100361.69;;;4.26;74.31
22753;BME280;11543;43.144;24.684;2023-01-25T03:25:02;100349.13;;;4.12;74.03
22753;BME280;11543;43.144;24.684;2023-01-25T03:27:29;100354.59;;;4.09;74.66
22753;BME280;11543;43.144;24.684;2023-01-25T03:29:54;100341.69;;;4.02;75.12
22753;BME280;11543;43.144;24.684;2023-01-25T03:32:20;100331.84;;;3.87;74.85
22753;BME280;11543;43.144;24.684;2023-01-25T03:34:46;100358.66;;;3.99;75.25
22753;BME280;11543;43.144;24.684;2023-01-25T03:37:12;100365.91;;;4.13;75.77
22753;BME280;11543;43.144;24.684;2023-01-25T03:39:37;100357.00;;;4.14;75.91
22753;BME280;11543;43.144;24.684;2023-01-25T03:42:03;100349.66;;;4.19;75.43
22753;BME280;11543;43.144;24.684;2023-01-25T03:44:28;100363.41;;;4.27;75.64
22753;BME280;11543;43.144;24.684;2023-01-25T03:46:54;100336.84;;;4.10;75.48
22753;BME280;11543;43.144;24.684;2023-01-25T03:49:19;100366.69;;;4.32;75.71
22753;BME280;11543;43.144;24.684;2023-01-25T03:51:45;100362.25;;;4.33;75.86
22753;BME280;11543;43.144;24.684;2023-01-25T03:54:10;100352.34;;;4.36;75.78
22753;BME280;11543;43.144;24.684;2023-01-25T03:56:37;100354.06;;;4.37;75.73
22753;BME280;11543;43.144;24.684;2023-01-25T03:59:03;100367.59;;;4.50;75.87
22753;BME280;11543;43.144;24.684;2023-01-25T04:01:28;100338.28;;;4.34;75.41
22753;BME280;11543;43.144;24.684;2023-01-25T04:03:54;100365.63;;;4.54;75.59
22753;BME280;11543;43.144;24.684;2023-01-25T04:06:20;100310.44;;;4.24;75.32
22753;BME280;11543;43.144;24.684;2023-01-25T04:08:45;100309.50;;;4.25;75.43
22753;BME280;11543;43.144;24.684;2023-01-25T04:11:11;100311.84;;;4.31;75.30
22753;BME280;11543;43.144;24.684;2023-01-25T04:13:38;100299.22;;;4.36;74.78
22753;BME280;11543;43.144;24.684;2023-01-25T04:16:09;100314.34;;;4.52;74.64
22753;BME280;11543;43.144;24.684;2023-01-25T04:18:38;100331.03;;;4.71;74.00
22753;BME280;11543;43.144;24.684;2023-01-25T04:21:05;100299.94;;;4.56;74.43
22753;BME280;11543;43.144;24.684;2023-01-25T04:23:33;100308.53;;;4.61;73.75
22753;BME280;11543;43.144;24.684;2023-01-25T04:26:04;100304.94;;;4.62;73.78
22753;BME280;11543;43.144;24.684;2023-01-25T04:28:32;100306.66;;;4.63;73.19
22753;BME280;11543;43.144;24.684;2023-01-25T04:30:58;100323.84;;;4.73;72.90
22753;BME280;11543;43.144;24.684;2023-01-25T04:33:23;100335.38;;;4.89;73.04
22753;BME280;11543;43.144;24.684;2023-01-25T04:35:50;100347.56;;;4.93;72.97
22753;BME280;11543;43.144;24.684;2023-01-25T04:38:16;100308.53;;;4.61;73.25
22753;BME280;11543;43.144;24.684;2023-01-25T04:40:42;100330.09;;;4.72;73.12
22753;BME280;11543;43.144;24.684;2023-01-25T04:43:08;100299.81;;;4.41;72.77
22753;BME280;11543;43.144;24.684;2023-01-25T04:45:35;100298.28;;;4.37;73.47
22753;BME280;11543;43.144;24.684;2023-01-25T04:48:03;100339.75;;;4.57;73.32
22753;BME280;11543;43.144;24.684;2023-01-25T04:50:29;100345.22;;;4.54;73.64
22753;BME280;11543;43.144;24.684;2023-01-25T04:52:55;100327.97;;;4.45;73.41
22753;BME280;11543;43.144;24.684;2023-01-25T04:55:21;100306.25;;;4.37;73.39
22753;BME280;11543;43.144;24.684;2023-01-25T04:57:50;100309.50;;;4.42;73.02
22753;BME280;11543;43.144;24.684;2023-01-25T05:00:16;100308.50;;;4.45;72.57
22753;BME280;11543;43.144;24.684;2023-01-25T05:02:43;100305.06;;;4.43;72.56
22753;BME280;11543;43.144;24.684;2023-01-25T05:05:09;100316.22;;;4.50;72.00
22753;BME280;11543;43.144;24.684;2023-01-25T05:07:35;100311.94;;;4.47;72.31
22753;BME280;11543;43.144;24.684;2023-01-25T05:10:00;100336.84;;;4.62;72.49
22753;BME280;11543;43.144;24.684;2023-01-25T05:12:26;100312.09;;;4.44;72.56
22753;BME280;11543;43.144;24.684;2023-01-25T05:14:55;100328.75;;;4.47;72.75
22753;BME280;11543;43.144;24.684;2023-01-25T05:17:20;100344.19;;;4.57;72.92
22753;BME280;11543;43.144;24.684;2023-01-25T05:19:46;100327.19;;;4.43;72.86
22753;BME280;11543;43.144;24.684;2023-01-25T05:22:13;100349.03;;;4.66;73.15
22753;BME280;11543;43.144;24.684;2023-01-25T05:24:39;100308.91;;;4.37;73.21
22753;BME280;11543;43.144;24.684;2023-01-25T05:27:07;100312.56;;;4.35;73.08
22753;BME280;11543;43.144;24.684;2023-01-25T05:29:38;100340.59;;;4.58;73.36
22753;BME280;11543;43.144;24.684;2023-01-25T05:32:12;100311.72;;;4.34;73.16
22753;BME280;11543;43.144;24.684;2023-01-25T05:34:52;100308.25;;;4.32;72.95
22753;BME280;11543;43.144;24.684;2023-01-25T05:37:20;100310.59;;;4.21;73.36
22753;BME280;11543;43.144;24.684;2023-01-25T05:39:45;100319.81;;;4.31;73.73
22753;BME280;11543;43.144;24.684;2023-01-25T05:42:13;100351.22;;;4.58;73.60
22753;BME280;11543;43.144;24.684;2023-01-25T05:44:39;100309.97;;;4.33;73.62
22753;BME280;11543;43.144;24.684;2023-01-25T05:47:06;100307.97;;;4.38;73.27
22753;BME280;11543;43.144;24.684;2023-01-25T05:49:32;100348.50;;;4.59;73.31
22753;BME280;11543;43.144;24.684;2023-01-25T05:51:57;100372.94;;;4.83;73.10
22753;BME280;11543;43.144;24.684;2023-01-25T05:54:23;100364.50;;;4.75;73.34
22753;BME280;11543;43.144;24.684;2023-01-25T05:56:49;100323.75;;;4.41;72.61
22753;BME280;11543;43.144;24.684;2023-01-25T05:59:19;100364.06;;;4.50;72.55
22753;BME280;11543;43.144;24.684;2023-01-25T06:01:45;100364.13;;;4.31;72.93
22753;BME280;11543;43.144;24.684;2023-01-25T06:04:14;100361.38;;;4.15;73.45
22753;BME280;11543;43.144;24.684;2023-01-25T06:06:40;100372.09;;;4.13;73.36
22753;BME280;11543;43.144;24.684;2023-01-25T06:09:06;100364.44;;;4.07;73.74
22753;BME280;11543;43.144;24.684;2023-01-25T06:11:32;100381.06;;;4.11;74.32
22753;BME280;11543;43.144;24.684;2023-01-25T06:13:57;100362.94;;;4.02;74.01
22753;BME280;11543;43.144;24.684;2023-01-25T06:16:23;100389.03;;;4.11;74.52
22753;BME280;11543;43.144;24.684;2023-01-25T06:18:48;100373.56;;;4.02;74.98
22753;BME280;11543;43.144;24.684;2023-01-25T06:21:16;100351.69;;;3.97;74.98
22753;BME280;11543;43.144;24.684;2023-01-25T06:23:43;100357.78;;;3.99;75.20
22753;BME280;11543;43.144;24.684;2023-01-25T06:26:11;100402.56;;;4.24;74.75
22753;BME280;11543;43.144;24.684;2023-01-25T06:28:37;100373.25;;;4.08;75.27
22753;BME280;11543;43.144;24.684;2023-01-25T06:31:05;100331.28;;;3.80;75.37
22753;BME280;11543;43.144;24.684;2023-01-25T06:33:31;100384.50;;;4.13;75.06
22753;BME280;11543;43.144;24.684;2023-01-25T06:36:06;100394.44;;;4.27;75.39
22753;BME280;11543;43.144;24.684;2023-01-25T06:38:32;100384.97;;;4.21;75.07
22753;BME280;11543;43.144;24.684;2023-01-25T06:40:59;100403.78;;;4.35;75.06
22753;BME280;11543;43.144;24.684;2023-01-25T06:43:30;100333.09;;;3.97;75.46
22753;BME280;11543;43.144;24.684;2023-01-25T06:46:08;100393.78;;;4.40;75.46
22753;BME280;11543;43.144;24.684;2023-01-25T06:48:43;100336.84;;;4.10;75.31
22753;BME280;11543;43.144;24.684;2023-01-25T06:54:42;100389.78;;;4.49;75.52
22753;BME280;11543;43.144;24.684;2023-01-25T06:57:30;100335.28;;;4.23;75.33
22753;BME280;11543;43.144;24.684;2023-01-25T07:00:04;100341.00;;;4.33;74.90
22753;BME280;11543;43.144;24.684;2023-01-25T07:02:36;100383.13;;;4.58;74.42
22753;BME280;11543;43.144;24.684;2023-01-25T07:05:01;100372.34;;;4.61;74.58
22753;BME280;11543;43.144;24.684;2023-01-25T07:07:33;100335.16;;;4.43;74.22
22753;BME280;11543;43.144;24.684;2023-01-25T07:09:59;100403.13;;;4.82;74.18
22753;BME280;11543;43.144;24.684;2023-01-25T07:12:27;100338.13;;;4.37;74.07
22753;BME280;11543;43.144;24.684;2023-01-25T07:14:58;100375.44;;;4.69;74.38
22753;BME280;11543;43.144;24.684;2023-01-25T07:17:24;100341.88;;;4.51;73.67
22753;BME280;11543;43.144;24.684;2023-01-25T07:19:50;100377.00;;;4.73;73.31
22753;BME280;11543;43.144;24.684;2023-01-25T07:22:15;100381.84;;;4.82;73.78
22753;BME280;11543;43.144;24.684;2023-01-25T07:24:42;100404.19;;;4.95;73.50
22753;BME280;11543;43.144;24.684;2023-01-25T07:27:13;100403.53;;;5.07;72.82
22753;BME280;11543;43.144;24.684;2023-01-25T07:29:39;100383.06;;;4.92;72.85
22753;BME280;11543;43.144;24.684;2023-01-25T07:32:05;100383.75;;;4.96;73.20
22753;BME280;11543;43.144;24.684;2023-01-25T07:34:31;100389.63;;;5.02;72.88
22753;BME280;11543;43.144;24.684;2023-01-25T07:36:56;100381.34;;;4.91;72.84
22753;BME280;11543;43.144;24.684;2023-01-25T07:39:22;100365.56;;;4.88;72.26
22753;BME280;11543;43.144;24.684;2023-01-25T07:41:50;100349.56;;;4.72;72.01
22753;BME280;11543;43.144;24.684;2023-01-25T07:44:16;100372.94;;;4.83;72.30
22753;BME280;11543;43.144;24.684;2023-01-25T07:46:41;100368.53;;;4.82;71.84
22753;BME280;11543;43.144;24.684;2023-01-25T07:49:07;100338.41;;;4.66;71.16
22753;BME280;11543;43.144;24.684;2023-01-25T07:51:32;100395.25;;;4.96;71.03
22753;BME280;11543;43.144;24.684;2023-01-25T07:54:00;100402.13;;;5.00;70.83
22753;BME280;11543;43.144;24.684;2023-01-25T07:56:29;100378.06;;;4.86;70.66
22753;BME280;11543;43.144;24.684;2023-01-25T07:59:00;100341.06;;;4.66;70.57
22753;BME280;11543;43.144;24.684;2023-01-25T08:01:30;100377.91;;;4.89;70.80
22753;BME280;11543;43.144;24.684;2023-01-25T08:04:01;100345.28;;;4.70;70.79
22753;BME280;11543;43.144;24.684;2023-01-25T08:06:34;100372.06;;;4.83;70.89
22753;BME280;11543;43.144;24.684;2023-01-25T08:09:06;100337.47;;;4.67;70.64
22753;BME280;11543;43.144;24.684;2023-01-25T08:12:03;100398.03;;;5.10;70.45
22753;BME280;11543;43.144;24.684;2023-01-25T08:14:33;100346.81;;;4.74;70.20
22753;BME280;11543;43.144;24.684;2023-01-25T08:16:59;100372.44;;;4.92;69.37
22753;BME280;11543;43.144;24.684;2023-01-25T08:19:24;100365.88;;;4.82;68.35
22753;BME280;11543;43.144;24.684;2023-01-25T08:21:56;100348.53;;;4.75;68.13
22753;BME280;11543;43.144;24.684;2023-01-25T08:24:21;100334.81;;;4.67;67.82
22753;BME280;11543;43.144;24.684;2023-01-25T08:26:47;100345.44;;;4.67;67.17
22753;BME280;11543;43.144;24.684;2023-01-25T08:29:12;100376.38;;;4.85;67.32
22753;BME280;11543;43.144;24.684;2023-01-25T08:31:43;100381.34;;;4.91;66.93
22753;BME280;11543;43.144;24.684;2023-01-25T08:34:12;100357.13;;;4.80;66.95
22753;BME280;11543;43.144;24.684;2023-01-25T08:36:39;100351.03;;;4.78;67.05
22753;BME280;11543;43.144;24.684;2023-01-25T08:39:06;100358.34;;;4.90;66.16
22753;BME280;11543;43.144;24.684;2023-01-25T08:41:33;100342.91;;;4.81;66.15
22753;BME280;11543;43.144;24.684;2023-01-25T08:44:00;100404.63;;;5.21;66.31
22753;BME280;11543;43.144;24.684;2023-01-25T08:46:28;100358.44;;;4.89;66.69
22753;BME280;11543;43.144;24.684;2023-01-25T08:48:56;100389.28;;;5.08;66.32
22753;BME280;11543;43.144;24.684;2023-01-25T08:51:24;100404.63;;;5.21;66.54
22753;BME280;11543;43.144;24.684;2023-01-25T08:54:00;100342.72;;;4.84;67.38
22753;BME280;11543;43.144;24.684;2023-01-25T08:56:29;100346.00;;;4.89;67.26
22753;BME280;11543;43.144;24.684;2023-01-25T08:58:55;100374.88;;;5.12;67.01
22753;BME280;11543;43.144;24.684;2023-01-25T09:01:20;100354.25;;;5.00;66.76
22753;BME280;11543;43.144;24.684;2023-01-25T09:03:48;100336.91;;;4.93;66.96
22753;BME280;11543;43.144;24.684;2023-01-25T09:06:15;100383.16;;;5.24;66.72
22753;BME280;11543;43.144;24.684;2023-01-25T09:08:42;100356.84;;;5.18;66.38
22753;BME280;11543;43.144;24.684;2023-01-25T09:11:11;100393.75;;;5.41;65.82
22753;BME280;11543;43.144;24.684;2023-01-25T09:13:38;100326.88;;;4.98;66.26
22753;BME280;11543;43.144;24.684;2023-01-25T09:16:13;100332.47;;;5.09;65.98
22753;BME280;11543;43.144;24.684;2023-01-25T09:18:42;100326.56;;;5.04;65.07
22753;BME280;11543;43.144;24.684;2023-01-25T09:21:10;100385.75;;;5.41;64.93
22753;BME280;11543;43.144;24.684;2023-01-25T09:23:46;100323.88;;;5.04;64.04
22753;BME280;11543;43.144;24.684;2023-01-25T09:26:13;100381.97;;;5.45;63.83
22753;BME280;11543;43.144;24.684;2023-01-25T09:28:40;100377.78;;;5.41;63.73
22753;BME280;11543;43.144;24.684;2023-01-25T09:31:08;100365.56;;;5.37;64.02
22753;BME280;11543;43.144;24.684;2023-01-25T09:33:38;100376.81;;;5.42;63.72
22753;BME280;11543;43.144;24.684;2023-01-25T09:36:04;100377.84;;;5.55;63.70
22753;BME280;11543;43.144;24.684;2023-01-25T09:38:30;100346.59;;;5.43;63.73
22753;BME280;11543;43.144;24.684;2023-01-25T09:49:20;100347.53;;;5.58;63.38
22753;BME280;11543;43.144;24.684;2023-01-25T09:51:57;100349.25;;;5.59;62.61
22753;BME280;11543;43.144;24.684;2023-01-25T09:54:27;100310.19;;;5.43;62.58
22753;BME280;11543;43.144;24.684;2023-01-25T09:56:53;100283.59;;;5.28;62.48
22753;BME280;11543;43.144;24.684;2023-01-25T09:59:22;100310.03;;;5.47;61.66
22753;BME280;11543;43.144;24.684;2023-01-25T10:01:56;100262.09;;;5.15;61.44
22753;BME280;11543;43.144;24.684;2023-01-25T10:06:55;100276.03;;;5.36;61.42
22753;BME280;11543;43.144;24.684;2023-01-25T10:12:15;100285.97;;;5.48;62.43
22753;BME280;11543;43.144;24.684;2023-01-25T10:14:45;100294.03;;;5.62;61.98
22753;BME280;11543;43.144;24.684;2023-01-25T10:17:35;100248.56;;;5.35;61.75
22753;BME280;11543;43.144;24.684;2023-01-25T10:23:13;100276.69;;;5.55;60.69
22753;BME280;11543;43.144;24.684;2023-01-25T10:25:46;100265.19;;;5.55;60.72
22753;BME280;11543;43.144;24.684;2023-01-25T10:31:05;100276.94;;;5.66;60.66
22753;BME280;11543;43.144;24.684;2023-01-25T10:33:49;100244.56;;;5.58;60.77
22753;BME280;11543;43.144;24.684;2023-01-25T10:36:23;100220.38;;;5.47;60.62
22753;BME280;11543;43.144;24.684;2023-01-25T10:38:51;100223.09;;;5.61;61.33
22753;BME280;11543;43.144;24.684;2023-01-25T10:41:33;100259.44;;;5.92;61.01
22753;BME280;11543;43.144;24.684;2023-01-25T10:44:00;100242.63;;;5.76;61.60
22753;BME280;11543;43.144;24.684;2023-01-25T10:46:52;100231.13;;;5.75;61.77
22753;BME280;11543;43.144;24.684;2023-01-25T10:50:04;100234.19;;;5.84;62.52
22753;BME280;11543;43.144;24.684;2023-01-25T10:52:27;100180.84;;;5.55;61.91
22753;BME280;11543;43.144;24.684;2023-01-25T10:58:42;100180.31;;;5.64;61.10
22753;BME280;11543;43.144;24.684;2023-01-25T11:01:28;100186.97;;;5.71;61.63
22753;BME280;11543;43.144;24.684;2023-01-25T11:04:21;100229.31;;;6.06;61.47
22753;BME280;11543;43.144;24.684;2023-01-25T11:07:26;100230.47;;;6.02;60.13
22753;BME280;11543;43.144;24.684;2023-01-25T11:09:53;100157.22;;;5.65;59.90
22753;BME280;11543;43.144;24.684;2023-01-25T11:12:30;100153.19;;;5.58;59.28
22753;BME280;11543;43.144;24.684;2023-01-25T11:15:21;100146.84;;;5.60;59.59
22753;BME280;11543;43.144;24.684;2023-01-25T11:18:04;100148.91;;;5.55;58.77
22753;BME280;11543;43.144;24.684;2023-01-25T11:20:34;100154.38;;;5.68;59.73
22753;BME280;11543;43.144;24.684;2023-01-25T11:23:00;100128.97;;;5.62;60.44
22753;BME280;11543;43.144;24.684;2023-01-25T11:25:31;100178.50;;;5.95;60.15
22753;BME280;11543;43.144;24.684;2023-01-25T11:28:29;100142.09;;;5.80;60.65
22753;BME280;11543;43.144;24.684;2023-01-25T11:30:58;100127.09;;;5.79;60.98
22753;BME280;11543;43.144;24.684;2023-01-25T11:33:25;100113.75;;;5.79;60.39
22753;BME280;11543;43.144;24.684;2023-01-25T11:38:42;100111.88;;;5.81;60.14
22753;BME280;11543;43.144;24.684;2023-01-25T11:41:50;100113.19;;;5.88;60.64
22753;BME280;11543;43.144;24.684;2023-01-25T12:02:20;100105.06;;;6.05;59.91
22753;BME280;11543;43.144;24.684;2023-01-25T12:05:10;100089.84;;;5.93;59.94
22753;BME280;11543;43.144;24.684;2023-01-25T12:07:58;100146.19;;;6.29;60.30
22753;BME280;11543;43.144;24.684;2023-01-25T12:13:52;100150.75;;;6.42;60.40
22753;BME280;11543;43.144;24.684;2023-01-25T12:26:11;100149.78;;;6.28;61.17
22753;BME280;11543;43.144;24.684;2023-01-25T12:28:14;100095.34;;;5.90;62.52
22753;BME280;11543;43.144;24.684;2023-01-25T12:33:36;100072.88;;;5.80;63.43
22753;BME280;11543;43.144;24.684;2023-01-25T12:36:30;100137.63;;;6.24;63.71
22753;BME280;11543;43.144;24.684;2023-01-25T12:39:20;100107.63;;;6.06;63.37
22753;BME280;11543;43.144;24.684;2023-01-25T12:42:06;100100.09;;;5.99;63.24
22753;BME280;11543;43.144;24.684;2023-01-25T12:49:45;100121.41;;;5.99;63.53
22753;BME280;11543;43.144;24.684;2023-01-25T12:52:33;100121.97;;;5.90;63.53
22753;BME280;11543;43.144;24.684;2023-01-25T12:55:05;100108.16;;;5.69;63.76
22753;BME280;11543;43.144;24.684;2023-01-25T13:00:44;100126.88;;;5.67;64.31
22753;BME280;11543;43.144;24.684;2023-01-25T13:05:56;100111.28;;;5.61;65.10
22753;BME280;11543;43.144;24.684;2023-01-25T13:11:11;100107.47;;;5.65;65.70
22753;BME280;11543;43.144;24.684;2023-01-25T13:13:37;100071.50;;;5.44;65.69
22753;BME280;11543;43.144;24.684;2023-01-25T13:18:57;100073.22;;;5.45;65.28
22753;BME280;11543;43.144;24.684;2023-01-25T13:21:42;100092.25;;;5.53;65.18
22753;BME280;11543;43.144;24.684;2023-01-25T13:31:55;100068.00;;;5.13;65.59
22753;BME280;11543;43.144;24.684;2023-01-25T13:37:18;100074.25;;;5.12;66.41
22753;BME280;11543;43.144;24.684;2023-01-25T13:42:23;100056.38;;;5.00;66.48
22753;BME280;11543;43.144;24.684;2023-01-25T13:44:52;100093.31;;;5.21;66.78
22753;BME280;11543;43.144;24.684;2023-01-25T13:47:22;100080.72;;;5.08;66.31
22753;BME280;11543;43.144;24.684;2023-01-25T13:52:24;100073.28;;;4.99;66.39
22753;BME280;11543;43.144;24.684;2023-01-25T13:54:54;100090.59;;;5.06;66.56
22753;BME280;11543;43.144;24.684;2023-01-25T13:57:26;100068.66;;;4.87;65.86
22753;BME280;11543;43.144;24.684;2023-01-25T14:00:05;100065.16;;;4.87;66.36
22753;BME280;11543;43.144;24.684;2023-01-25T14:02:32;100049.41;;;4.68;66.69
22753;BME280;11543;43.144;24.684;2023-01-25T14:04:59;100084.34;;;4.92;66.96
22753;BME280;11543;43.144;24.684;2023-01-25T14:07:32;100081.97;;;4.87;67.83
22753;BME280;11543;43.144;24.684;2023-01-25T14:10:14;100042.75;;;4.61;68.38
22753;BME280;11543;43.144;24.684;2023-01-25T14:12:41;100076.66;;;4.87;68.61
22753;BME280;11543;43.144;24.684;2023-01-25T14:15:17;100075.78;;;4.87;67.42
22753;BME280;11543;43.144;24.684;2023-01-25T14:17:43;100078.53;;;4.85;67.20
22753;BME280;11543;43.144;24.684;2023-01-25T14:20:21;100074.09;;;4.70;66.71
22753;BME280;11543;43.144;24.684;2023-01-25T14:22:48;100093.47;;;4.72;67.42
22753;BME280;11543;43.144;24.684;2023-01-25T14:25:15;100083.03;;;4.69;67.89
22753;BME280;11543;43.144;24.684;2023-01-25T14:27:47;100095.38;;;4.70;67.37
22753;BME280;11543;43.144;24.684;2023-01-25T14:30:23;100083.91;;;4.54;67.69
22753;BME280;11543;43.144;24.684;2023-01-25T14:32:53;100057.44;;;4.36;67.62
22753;BME280;11543;43.144;24.684;2023-01-25T14:37:54;100049.53;;;4.35;67.42
22753;BME280;11543;43.144;24.684;2023-01-25T14:40:21;100056.66;;;4.34;67.71
22753;BME280;11543;43.144;24.684;2023-01-25T14:42:48;100065.53;;;4.33;67.45
22753;BME280;11543;43.144;24.684;2023-01-25T14:45:14;100053.88;;;4.20;67.17
22753;BME280;11543;43.144;24.684;2023-01-25T14:47:40;100077.09;;;4.32;67.56
22753;BME280;11543;43.144;24.684;2023-01-25T14:50:30;100084.75;;;4.38;67.23
22753;BME280;11543;43.144;24.684;2023-01-25T14:53:06;100094.00;;;4.31;67.70